Time;durP1;ratioP1;P1;durP2;ratioP2;P2;SDS_P1;SDS_P2;PMS_P1;PMS_P2;Temp;Humidity;BMP_temperature;BMP_pressure;BME280_temperature;BME280_humidity;BME280_pressure;Samples;Min_cycle;Max_cycle;Signal;HPM_P1;HPM_P2
2022/04/23 00:01:25;;;;;;;2.12;2.00;;;7.10;95.70;;;;;;612502;233;26794;-69
2022/04/23 00:03:53;;;;;;;2.10;2.00;;;7.00;95.20;;;;;;612432;235;26612;-69
2022/04/23 00:06:21;;;;;;;2.10;2.00;;;7.10;95.50;;;;;;612473;234;26629;-68
2022/04/23 00:08:49;;;;;;;1.75;1.65;;;7.10;95.90;;;;;;612429;233;26584;-68
2022/04/23 00:11:16;;;;;;;2.10;1.83;;;7.10;95.70;;;;;;612379;235;26786;-68
2022/04/23 00:13:44;;;;;;;1.90;1.70;;;7.10;95.20;;;;;;612507;235;26574;-68
2022/04/23 00:16:14;;;;;;;1.85;1.75;;;7.00;95.00;;;;;;612400;235;26847;-68
2022/04/23 00:18:38;;;;;;;1.98;1.87;;;7.00;95.30;;;;;;612273;235;26624;-69
2022/04/23 00:21:05;;;;;;;2.03;1.92;;;6.90;95.00;;;;;;612501;233;26881;-69
2022/04/23 00:23:34;;;;;;;2.08;1.98;;;6.80;95.30;;;;;;612494;233;26569;-69
2022/04/23 00:26:01;;;;;;;2.22;1.62;;;6.80;95.30;;;;;;612355;235;26596;-68
2022/04/23 00:28:28;;;;;;;2.50;2.03;;;6.80;96.00;;;;;;612375;235;26641;-70
2022/04/23 00:30:55;;;;;;;1.75;1.65;;;6.80;95.80;;;;;;612446;233;26823;-69
2022/04/23 00:33:22;;;;;;;2.17;1.73;;;6.90;96.30;;;;;;612422;229;26564;-68
2022/04/23 00:35:49;;;;;;;1.90;1.80;;;6.90;97.50;;;;;;612891;232;26631;-68
2022/04/23 00:38:17;;;;;;;1.80;1.70;;;6.90;96.10;;;;;;613668;232;26652;-68
2022/04/23 00:40:46;;;;;;;1.85;1.75;;;6.80;95.30;;;;;;613360;232;26558;-68
2022/04/23 00:43:14;;;;;;;2.03;1.92;;;6.80;95.30;;;;;;613238;233;26797;-68
2022/04/23 00:45:41;;;;;;;1.85;1.75;;;6.80;96.00;;;;;;611611;234;26629;-68
2022/04/23 00:48:07;;;;;;;2.37;1.98;;;6.80;96.80;;;;;;613312;234;26935;-68
2022/04/23 00:50:34;;;;;;;2.10;2.00;;;6.80;96.50;;;;;;613128;233;26592;-68
2022/04/23 00:53:02;;;;;;;1.80;1.70;;;6.80;96.90;;;;;;613055;233;27284;-68
2022/04/23 00:55:29;;;;;;;2.03;1.90;;;6.70;96.00;;;;;;612750;234;26572;-68
2022/04/23 00:57:56;;;;;;;1.98;1.87;;;6.70;96.60;;;;;;612504;235;26591;-68
2022/04/23 01:00:25;;;;;;;2.75;1.83;;;6.70;97.30;;;;;;612707;235;26576;-68
2022/04/23 01:02:55;;;;;;;2.17;1.80;;;6.70;96.80;;;;;;612742;233;26523;-68
2022/04/23 01:05:24;;;;;;;2.28;2.05;;;6.70;96.80;;;;;;612744;233;26810;-68
2022/04/23 01:07:51;;;;;;;1.98;1.87;;;6.70;96.80;;;;;;612838;233;26567;-68
2022/04/23 01:10:18;;;;;;;1.60;1.60;;;6.60;96.30;;;;;;612808;233;26827;-68
2022/04/23 01:12:46;;;;;;;2.08;1.92;;;6.60;95.40;;;;;;612608;233;26539;-68
2022/04/23 01:15:14;;;;;;;1.92;1.83;;;6.50;95.30;;;;;;612425;235;26617;-68
2022/04/23 01:17:41;;;;;;;2.00;1.90;;;6.50;95.30;;;;;;612387;233;26661;-64
2022/04/23 01:20:09;;;;;;;2.17;2.08;;;6.50;96.10;;;;;;612464;233;26589;-64
2022/04/23 01:22:36;;;;;;;1.95;1.80;;;6.40;96.40;;;;;;612438;233;26565;-64
2022/04/23 01:25:06;;;;;;;1.80;1.70;;;6.40;96.00;;;;;;612508;233;27069;-64
2022/04/23 01:27:32;;;;;;;1.90;1.80;;;6.40;96.30;;;;;;612446;233;26587;-64
2022/04/23 01:29:59;;;;;;;2.35;1.80;;;6.40;97.10;;;;;;612484;233;26847;-63
2022/04/23 01:32:27;;;;;;;1.90;1.80;;;6.40;96.10;;;;;;612417;233;26604;-63
2022/04/23 01:34:55;;;;;;;1.98;1.87;;;6.30;95.80;;;;;;612457;233;26660;-63
2022/04/23 01:37:22;;;;;;;1.95;1.85;;;6.30;95.80;;;;;;612466;233;26598;-64
2022/04/23 01:39:49;;;;;;;2.15;1.75;;;6.40;97.10;;;;;;612485;235;26617;-64
2022/04/23 01:42:17;;;;;;;2.35;2.15;;;6.30;96.50;;;;;;612476;235;26798;-63
2022/04/23 01:44:45;;;;;;;1.90;1.80;;;6.30;96.70;;;;;;612446;233;26608;-64
2022/04/23 01:47:12;;;;;;;1.92;1.83;;;6.30;96.70;;;;;;612878;232;26655;-63
2022/04/23 01:49:39;;;;;;;2.00;1.90;;;6.30;96.30;;;;;;614011;233;26852;-63
2022/04/23 01:52:07;;;;;;;1.73;1.73;;;6.30;97.00;;;;;;613486;232;26573;-64
2022/04/23 01:54:35;;;;;;;1.80;1.70;;;6.30;95.90;;;;;;613329;233;26567;-64
2022/04/23 01:57:02;;;;;;;2.20;2.10;;;6.30;95.80;;;;;;613176;232;26599;-64
2022/04/23 01:59:30;;;;;;;2.10;2.00;;;6.30;96.50;;;;;;613028;233;26615;-64
2022/04/23 02:01:58;;;;;;;2.12;2.03;;;6.20;96.50;;;;;;613053;233;26870;-64
2022/04/23 02:04:25;;;;;;;2.28;2.17;;;6.20;96.80;;;;;;613013;233;26827;-64
2022/04/23 02:06:52;;;;;;;1.77;1.70;;;6.20;96.40;;;;;;612789;233;26843;-65
2022/04/23 02:09:19;;;;;;;1.87;1.77;;;6.10;96.60;;;;;;612800;233;26575;-64
2022/04/23 02:11:46;;;;;;;2.00;1.90;;;6.10;96.20;;;;;;612851;233;26566;-63
2022/04/23 02:14:15;;;;;;;1.90;1.80;;;6.20;96.20;;;;;;612806;234;26544;-63
2022/04/23 02:16:41;;;;;;;1.95;1.85;;;6.20;96.20;;;;;;612775;233;26594;-63
2022/04/23 02:19:09;;;;;;;2.03;1.92;;;6.20;95.30;;;;;;612822;233;26569;-63
2022/04/23 02:21:37;;;;;;;1.87;1.77;;;6.20;95.30;;;;;;612809;233;27058;-63
2022/04/23 02:24:04;;;;;;;1.87;1.77;;;6.10;96.10;;;;;;612590;233;26560;-63
2022/04/23 02:26:30;;;;;;;2.33;2.15;;;6.10;96.10;;;;;;612446;235;26593;-63
2022/04/23 02:28:58;;;;;;;2.08;1.98;;;6.10;95.60;;;;;;612462;233;26694;-63
2022/04/23 02:31:26;;;;;;;2.05;1.95;;;6.10;95.60;;;;;;612483;235;26564;-63
2022/04/23 02:33:53;;;;;;;1.52;1.50;;;6.10;95.00;;;;;;612395;233;26621;-63
2022/04/23 02:36:20;;;;;;;1.85;1.75;;;6.00;95.60;;;;;;612488;235;26820;-63
2022/04/23 02:38:50;;;;;;;1.90;1.80;;;6.10;96.00;;;;;;612329;234;26623;-63
2022/04/23 02:41:14;;;;;;;2.22;2.12;;;6.20;97.00;;;;;;612276;235;26887;-63
2022/04/23 02:43:42;;;;;;;3.20;2.00;;;6.20;96.60;;;;;;612420;234;26585;-63
2022/04/23 02:46:09;;;;;;;1.80;1.70;;;6.20;96.20;;;;;;612365;235;26827;-64
2022/04/23 02:48:36;;;;;;;2.00;1.90;;;6.20;96.70;;;;;;612496;233;26584;-63
2022/04/23 02:51:04;;;;;;;2.17;2.08;;;6.20;95.80;;;;;;612455;235;26873;-63
2022/04/23 02:53:32;;;;;;;1.90;1.80;;;6.10;95.80;;;;;;612464;235;26605;-63
2022/04/23 02:56:02;;;;;;;1.95;1.85;;;6.10;96.10;;;;;;612425;233;26616;-64
2022/04/23 02:58:27;;;;;;;2.00;1.90;;;6.10;96.10;;;;;;612412;233;26730;-64
2022/04/23 03:00:54;;;;;;;2.15;2.05;;;6.20;94.80;;;;;;614004;234;26560;-64
2022/04/23 03:03:21;;;;;;;2.33;2.05;;;6.20;95.10;;;;;;613530;233;26823;-63
2022/04/23 03:05:49;;;;;;;2.03;1.92;;;6.20;95.30;;;;;;613348;232;26523;-63
2022/04/23 03:08:16;;;;;;;2.95;2.15;;;6.10;94.50;;;;;;613213;232;26834;-64
2022/04/23 03:10:44;;;;;;;2.20;2.10;;;6.00;95.30;;;;;;613053;234;26607;-63
2022/04/23 03:13:11;;;;;;;1.70;1.60;;;6.00;95.70;;;;;;613060;234;26606;-63
2022/04/23 03:15:39;;;;;;;2.12;2.03;;;6.00;95.70;;;;;;613140;235;26598;-63
2022/04/23 03:18:08;;;;;;;1.80;1.70;;;6.00;96.30;;;;;;612852;235;26591;-63
2022/04/23 03:20:35;;;;;;;1.95;1.85;;;6.00;95.00;;;;;;612728;234;26564;-64
2022/04/23 03:23:02;;;;;;;2.10;2.00;;;5.90;95.20;;;;;;612787;233;26576;-63
2022/04/23 03:25:33;;;;;;;2.87;2.50;;;5.90;96.80;;;;;;612762;233;26581;-63
2022/04/23 03:28:01;;;;;;;1.92;1.83;;;6.00;97.00;;;;;;612753;233;26603;-63
2022/04/23 03:30:28;;;;;;;1.95;1.85;;;5.90;96.90;;;;;;612765;233;26824;-63
2022/04/23 03:32:55;;;;;;;2.35;2.25;;;6.00;97.10;;;;;;612660;233;26549;-64
2022/04/23 03:35:23;;;;;;;2.55;2.42;;;5.90;95.00;;;;;;612516;234;26556;-63
2022/04/23 03:37:50;;;;;;;3.00;2.83;;;6.00;95.10;;;;;;612443;234;26688;-63
2022/04/23 03:40:17;;;;;;;3.20;3.00;;;6.00;96.70;;;;;;612519;233;26577;-64
2022/04/23 03:42:48;;;;;;;3.03;2.83;;;5.90;97.00;;;;;;612430;235;26826;-63
2022/04/23 03:45:12;;;;;;;2.30;2.20;;;5.90;96.80;;;;;;612251;235;26547;-63
2022/04/23 03:47:47;;;;;;;2.28;2.08;;;5.80;96.70;;;;;;612396;234;26836;-63
2022/04/23 03:50:14;;;;;;;2.12;2.03;;;5.90;95.60;;;;;;612475;234;26648;-63
2022/04/23 03:52:41;;;;;;;2.17;2.08;;;5.90;95.80;;;;;;612798;235;26807;-63
2022/04/23 03:55:09;;;;;;;2.37;2.28;;;5.80;97.00;;;;;;612840;233;26583;-64
2022/04/23 03:57:42;;;;;;;2.00;1.90;;;5.80;95.60;;;;;;612841;233;26593;-64
2022/04/23 04:00:11;;;;;;;2.30;2.20;;;5.70;96.90;;;;;;612815;235;26605;-63
2022/04/23 04:02:38;;;;;;;2.10;2.00;;;5.60;96.80;;;;;;612708;235;26630;-63
2022/04/23 04:05:06;;;;;;;1.87;1.80;;;5.60;95.90;;;;;;612445;235;26833;-63
2022/04/23 04:07:33;;;;;;;2.60;2.40;;;5.70;97.10;;;;;;612460;235;26862;-63
2022/04/23 04:10:01;;;;;;;2.03;1.92;;;5.70;97.20;;;;;;612521;232;26612;-63
2022/04/23 04:12:27;;;;;;;2.22;2.12;;;5.70;97.90;;;;;;614109;232;27010;-63
2022/04/23 04:14:54;;;;;;;2.10;2.00;;;5.70;96.40;;;;;;613528;232;26567;-63
2022/04/23 04:17:22;;;;;;;1.98;1.87;;;5.70;96.20;;;;;;613343;232;26582;-63
2022/04/23 04:19:50;;;;;;;1.90;1.80;;;5.60;96.20;;;;;;613226;234;26576;-64
2022/04/23 04:22:18;;;;;;;2.20;2.10;;;5.70;96.70;;;;;;613089;235;26636;-64
2022/04/23 04:24:46;;;;;;;3.00;2.80;;;5.80;97.20;;;;;;613073;233;26862;-64
2022/04/23 04:27:13;;;;;;;2.45;2.35;;;5.90;97.20;;;;;;613016;234;26833;-64
2022/04/23 04:29:40;;;;;;;2.70;2.50;;;5.90;95.00;;;;;;612849;233;26564;-64
2022/04/23 04:32:07;;;;;;;2.47;2.30;;;6.00;95.60;;;;;;612739;233;26854;-64
2022/04/23 04:34:35;;;;;;;2.58;2.42;;;6.00;95.30;;;;;;612755;235;26568;-64
2022/04/23 04:37:07;;;;;;;2.47;2.28;;;6.10;95.80;;;;;;612755;234;26564;-64
2022/04/23 04:39:35;;;;;;;2.20;2.10;;;6.10;95.80;;;;;;612631;234;26916;-64
2022/04/23 04:42:02;;;;;;;2.20;2.10;;;6.10;96.60;;;;;;612716;229;26845;-64
2022/04/23 04:44:30;;;;;;;2.42;2.12;;;6.10;95.00;;;;;;612716;235;26579;-64
2022/04/23 04:46:57;;;;;;;2.00;1.90;;;6.10;96.60;;;;;;612605;233;26778;-64
2022/04/23 04:49:24;;;;;;;1.87;1.77;;;6.10;94.60;;;;;;612412;233;26621;-64
2022/04/23 04:51:51;;;;;;;2.28;2.17;;;6.20;94.70;;;;;;612453;233;26814;-64
2022/04/23 04:54:18;;;;;;;2.30;2.20;;;6.20;96.10;;;;;;612458;233;26559;-64
2022/04/23 04:56:46;;;;;;;2.10;2.00;;;6.30;95.70;;;;;;612451;233;26616;-64
2022/04/23 04:59:14;;;;;;;2.17;2.08;;;6.40;96.20;;;;;;612433;233;26559;-64
2022/04/23 05:01:41;;;;;;;2.20;2.10;;;6.40;96.30;;;;;;612483;235;26607;-64
2022/04/23 05:04:08;;;;;;;3.15;2.95;;;6.40;94.90;;;;;;612449;233;26634;-64
2022/04/23 05:06:35;;;;;;;2.00;1.90;;;6.50;96.00;;;;;;612473;233;26814;-64
2022/04/23 05:09:02;;;;;;;2.28;2.15;;;6.50;96.00;;;;;;612452;233;26616;-64
2022/04/23 05:11:30;;;;;;;2.58;2.37;;;6.60;94.40;;;;;;612468;233;26606;-64
2022/04/23 05:13:57;;;;;;;2.08;1.87;;;6.60;94.60;;;;;;612507;235;26839;-64
2022/04/23 05:16:25;;;;;;;2.00;1.90;;;6.80;94.80;;;;;;612468;233;26571;-64
2022/04/23 05:18:53;;;;;;;6.70;2.42;;;6.80;95.10;;;;;;612505;235;26586;-64
2022/04/23 05:21:21;;;;;;;2.55;2.35;;;6.90;95.20;;;;;;612455;233;26622;-63
2022/04/23 05:23:48;;;;;;;2.30;2.20;;;6.90;95.20;;;;;;614100;232;27265;-64
2022/04/23 05:26:15;;;;;;;2.47;2.30;;;7.00;95.40;;;;;;613574;232;26563;-64
2022/04/23 05:28:44;;;;;;;6.20;2.25;;;7.20;92.20;;;;;;613335;232;26574;-64
2022/04/23 05:31:11;;;;;;;2.20;2.03;;;7.20;92.20;;;;;;613259;234;26805;-64
2022/04/23 05:33:38;;;;;;;1.92;1.83;;;7.30;93.10;;;;;;613038;234;26615;-64
2022/04/23 05:36:06;;;;;;;2.20;2.10;;;7.30;94.50;;;;;;613008;229;26824;-65
2022/04/23 05:38:36;;;;;;;2.30;2.20;;;7.40;94.90;;;;;;613105;233;26634;-63
2022/04/23 05:41:03;;;;;;;2.50;2.30;;;7.50;93.40;;;;;;612864;233;26827;-64
2022/04/23 05:43:30;;;;;;;2.25;2.15;;;7.60;94.40;;;;;;612734;233;26556;-64
2022/04/23 05:45:59;;;;;;;2.45;2.30;;;7.70;93.50;;;;;;612768;235;26823;-64
2022/04/23 05:48:25;;;;;;;2.65;2.45;;;8.00;94.40;;;;;;612604;234;26561;-63
2022/04/23 05:50:53;;;;;;;5.00;2.33;;;8.10;92.50;;;;;;612729;233;26568;-65
2022/04/23 05:53:20;;;;;;;2.17;2.00;;;8.10;92.50;;;;;;612774;233;26805;-64
2022/04/23 05:55:47;;;;;;;2.60;2.40;;;8.20;93.70;;;;;;612766;233;26587;-64
2022/04/23 05:58:15;;;;;;;2.12;2.03;;;8.30;93.20;;;;;;612625;233;26844;-63
2022/04/23 06:00:42;;;;;;;2.00;1.90;;;8.40;93.00;;;;;;612454;235;26633;-64
2022/04/23 06:03:09;;;;;;;2.60;2.50;;;8.50;93.80;;;;;;612597;235;26563;-64
2022/04/23 06:05:37;;;;;;;2.58;2.40;;;8.70;92.50;;;;;;612548;235;26624;-64
2022/04/23 06:08:04;;;;;;;2.17;2.08;;;8.70;92.50;;;;;;612504;235;26649;-64
2022/04/23 06:10:32;;;;;;;2.78;2.10;;;9.00;90.80;;;;;;612549;235;26621;-64
2022/04/23 06:13:00;;;;;;;2.60;2.40;;;9.20;93.10;;;;;;612589;233;26573;-63
2022/04/23 06:15:27;;;;;;;2.35;2.22;;;9.20;93.10;;;;;;612438;233;26588;-65
2022/04/23 06:17:55;;;;;;;2.58;2.37;;;9.30;91.80;;;;;;612504;235;26616;-65
2022/04/23 06:20:23;;;;;;;3.75;2.95;;;9.60;90.70;;;;;;612514;235;27285;-64
2022/04/23 06:22:50;;;;;;;2.05;1.95;;;9.50;90.60;;;;;;612489;235;27261;-64
2022/04/23 06:25:18;;;;;;;2.37;2.15;;;9.80;88.00;;;;;;612362;233;26629;-64
2022/04/23 06:27:46;;;;;;;2.40;2.10;;;9.90;86.00;;;;;;612463;235;26568;-63
2022/04/23 06:30:15;;;;;;;3.08;2.12;;;10.00;88.20;;;;;;612445;228;26560;-65
2022/04/23 06:32:41;;;;;;;2.30;2.20;;;9.90;89.10;;;;;;603042;235;26603;-64
2022/04/23 06:35:08;;;;;;;1.90;1.80;;;10.10;88.00;;;;;;613958;232;26576;-64
2022/04/23 06:37:40;;;;;;;2.62;2.42;;;10.30;88.80;;;;;;613616;234;26594;-64
2022/04/23 06:40:07;;;;;;;2.08;1.98;;;10.30;88.00;;;;;;613318;234;26565;-63
2022/04/23 06:42:35;;;;;;;2.65;2.45;;;10.50;84.50;;;;;;613311;232;26555;-64
2022/04/23 06:45:02;;;;;;;1.98;1.87;;;10.50;84.40;;;;;;613065;233;26615;-63
2022/04/23 06:47:29;;;;;;;2.10;2.00;;;10.60;89.20;;;;;;613044;233;26987;-63
2022/04/23 06:49:59;;;;;;;2.20;2.10;;;10.70;86.10;;;;;;613052;234;26626;-64
2022/04/23 06:52:26;;;;;;;2.70;2.60;;;10.80;84.90;;;;;;612945;233;26606;-64
2022/04/23 06:54:54;;;;;;;2.22;2.12;;;10.90;87.70;;;;;;613046;233;26815;-64
2022/04/23 06:57:20;;;;;;;2.15;2.05;;;10.90;90.60;;;;;;613031;234;26565;-64
2022/04/23 06:59:47;;;;;;;2.20;2.10;;;11.00;85.10;;;;;;613085;234;26961;-64
2022/04/23 07:02:14;;;;;;;2.00;1.90;;;11.10;88.90;;;;;;613137;234;26535;-64
2022/04/23 07:04:42;;;;;;;2.10;2.00;;;11.20;89.40;;;;;;613115;233;26784;-64
2022/04/23 07:07:10;;;;;;;2.40;2.30;;;11.30;85.30;;;;;;613173;233;26573;-64
2022/04/23 07:09:36;;;;;;;2.78;2.17;;;11.40;90.40;;;;;;613077;234;26809;-63
2022/04/23 07:12:05;;;;;;;2.00;1.90;;;11.50;86.70;;;;;;612902;233;26528;-63
2022/04/23 07:14:32;;;;;;;3.12;2.83;;;11.50;87.00;;;;;;612825;235;26808;-64
2022/04/23 07:16:59;;;;;;;2.53;2.30;;;11.60;85.10;;;;;;612559;235;26571;-65
2022/04/23 07:19:27;;;;;;;3.12;2.83;;;11.60;85.00;;;;;;612482;233;26810;-64
2022/04/23 07:21:54;;;;;;;3.92;2.58;;;11.80;88.30;;;;;;612470;235;26847;-65
2022/04/23 07:24:21;;;;;;;3.55;3.25;;;11.80;82.40;;;;;;612438;235;26632;-64
2022/04/23 07:26:48;;;;;;;3.10;2.90;;;11.90;82.40;;;;;;612437;235;26850;-64
2022/04/23 07:29:15;;;;;;;5.37;2.87;;;12.00;82.50;;;;;;612462;235;26612;-64
2022/04/23 07:31:43;;;;;;;3.70;3.40;;;12.10;81.30;;;;;;612429;235;26862;-65
2022/04/23 07:39:16;;;;;;;3.30;3.10;;;12.30;80.90;;;;;;617531;231;26602;-64
2022/04/23 07:41:45;;;;;;;2.95;2.78;;;12.30;81.00;;;;;;614832;231;26560;-64
2022/04/23 07:44:12;;;;;;;3.22;2.95;;;12.30;80.80;;;;;;614973;231;26838;-65
2022/04/23 07:46:40;;;;;;;3.67;2.50;;;12.50;80.40;;;;;;615286;232;26592;-64
2022/04/23 07:49:09;;;;;;;3.20;2.95;;;12.50;86.50;;;;;;616246;231;26630;-65
2022/04/23 07:51:36;;;;;;;3.70;3.40;;;12.40;86.30;;;;;;615922;227;26598;-63
2022/04/23 07:54:02;;;;;;;3.35;2.90;;;12.50;85.10;;;;;;615788;231;26566;-61
2022/04/23 07:56:30;;;;;;;2.80;2.60;;;12.50;78.00;;;;;;617815;227;27301;-63
2022/04/23 07:58:57;;;;;;;2.62;2.45;;;12.50;75.70;;;;;;616199;231;26616;-62
2022/04/23 08:01:24;;;;;;;3.05;2.78;;;12.60;82.10;;;;;;616050;231;26844;-62
2022/04/23 08:03:51;;;;;;;2.90;2.70;;;12.70;76.80;;;;;;615342;231;26600;-62
2022/04/23 08:06:19;;;;;;;3.67;3.03;;;12.70;76.80;;;;;;615491;231;26576;-62
2022/04/23 08:08:46;;;;;;;4.40;2.90;;;12.70;76.90;;;;;;620267;230;26826;-63
2022/04/23 08:11:14;;;;;;;3.47;3.03;;;12.80;78.00;;;;;;618993;230;26572;-63
2022/04/23 08:13:41;;;;;;;3.20;3.00;;;12.80;81.10;;;;;;617105;230;26804;-63
2022/04/23 08:16:08;;;;;;;2.87;2.60;;;12.90;78.20;;;;;;618328;230;26546;-62
2022/04/23 08:18:35;;;;;;;3.60;3.20;;;12.90;75.90;;;;;;616049;230;27181;-64
2022/04/23 08:21:02;;;;;;;6.47;3.25;;;13.00;75.80;;;;;;615992;227;26578;-62
2022/04/23 08:23:33;;;;;;;4.93;3.42;;;13.10;82.20;;;;;;617502;231;26880;-63
2022/04/23 08:25:57;;;;;;;3.35;3.08;;;13.10;82.20;;;;;;616606;231;26635;-62
2022/04/23 08:30:57;;;;;;;2.92;2.72;;;13.20;77.60;;;;;;616098;231;26574;-63
2022/04/23 08:33:57;;;;;;;5.95;3.55;;;13.20;80.30;;;;;;614037;231;26619;-63
2022/04/23 08:35:52;;;;;;;3.22;3.00;;;13.30;76.90;;;;;;612898;231;26842;-62
2022/04/23 08:38:19;;;;;;;7.47;4.32;;;13.30;76.10;;;;;;622692;231;26636;-62
2022/04/23 08:40:47;;;;;;;15.23;6.97;;;13.40;74.70;;;;;;618039;231;26799;-67
2022/04/23 08:43:13;;;;;;;16.65;6.40;;;13.50;76.30;;;;;;615005;234;26553;-63
2022/04/23 08:45:41;;;;;;;52.30;13.75;;;13.60;78.10;;;;;;613569;231;26859;-64
2022/04/23 08:48:09;;;;;;;81.40;16.37;;;13.60;74.60;;;;;;618556;231;26628;-64
2022/04/23 08:50:37;;;;;;;1900.22;219.80;;;13.70;76.90;;;;;;613976;233;26578;-63
2022/04/23 08:53:06;;;;;;;28.40;8.70;;;13.90;78.70;;;;;;619359;228;26578;-64
2022/04/23 08:55:33;;;;;;;10.02;5.10;;;13.90;78.60;;;;;;613795;231;26566;-64
2022/04/23 08:58:02;;;;;;;27.35;9.02;;;14.00;75.10;;;;;;620320;229;26652;-65
2022/04/23 09:00:29;;;;;;;58.50;15.07;;;14.10;75.90;;;;;;617464;231;26529;-64
2022/04/23 09:02:57;;;;;;;8.95;5.47;;;14.00;76.50;;;;;;616557;230;26552;-64
2022/04/23 09:05:27;;;;;;;10.75;4.80;;;14.10;69.70;;;;;;615850;232;26563;-66
2022/04/23 09:07:53;;;;;;;9.13;4.15;;;14.30;74.50;;;;;;613492;233;26629;-65
2022/04/23 09:10:22;;;;;;;8.13;4.43;;;14.40;71.70;;;;;;614978;232;26574;-65
2022/04/23 09:12:52;;;;;;;5.00;3.90;;;14.30;71.60;;;;;;612845;231;26646;-66
2022/04/23 09:25:36;;;;;;;5.10;3.92;;;14.60;69.60;;;;;;620171;231;26567;-64
2022/04/23 09:28:15;;;;;;;3.15;2.95;;;14.80;71.10;;;;;;612697;233;26572;-65
2022/04/23 09:30:42;;;;;;;3.95;3.47;;;14.90;66.60;;;;;;614406;233;26880;-64
2022/04/23 09:33:10;;;;;;;5.18;3.42;;;14.90;69.80;;;;;;615798;228;26628;-64
2022/04/23 09:35:37;;;;;;;3.70;3.40;;;14.90;69.90;;;;;;612946;234;26870;-63
2022/04/23 09:38:14;;;;;;;3.67;3.33;;;15.00;64.50;;;;;;613441;234;26573;-63
2022/04/23 09:40:42;;;;;;;4.12;3.65;;;15.10;70.30;;;;;;618361;231;26857;-63
2022/04/23 09:43:09;;;;;;;3.67;3.40;;;15.10;69.80;;;;;;621024;231;26623;-64
2022/04/23 09:45:41;;;;;;;3.35;3.08;;;15.10;70.10;;;;;;614172;231;26842;-64
2022/04/23 09:48:19;;;;;;;3.40;3.20;;;15.10;64.10;;;;;;618795;226;26652;-65
2022/04/23 09:50:47;;;;;;;3.70;3.40;;;15.00;63.90;;;;;;612853;233;26593;-65
2022/04/23 09:53:16;;;;;;;3.95;3.53;;;15.00;63.80;;;;;;615166;233;26580;-65
2022/04/23 09:55:43;;;;;;;4.82;4.43;;;14.90;62.60;;;;;;615633;232;27040;-65
2022/04/23 09:58:11;;;;;;;3.97;3.60;;;14.90;65.30;;;;;;613840;233;26556;-65
2022/04/23 10:00:37;;;;;;;3.65;3.35;;;15.00;65.80;;;;;;618414;231;26804;-65
2022/04/23 10:03:07;;;;;;;7.28;3.95;;;15.00;62.30;;;;;;615171;231;26635;-64
2022/04/23 10:05:35;;;;;;;3.90;3.60;;;15.00;70.50;;;;;;612564;233;26620;-64
2022/04/23 10:08:02;;;;;;;7.22;5.30;;;15.00;62.90;;;;;;614966;232;26588;-64
2022/04/23 10:10:30;;;;;;;3.55;3.12;;;15.10;59.80;;;;;;618982;230;27291;-64
2022/04/23 10:12:57;;;;;;;5.00;3.20;;;15.10;67.40;;;;;;619508;230;26644;-64
2022/04/23 10:15:25;;;;;;;6.10;4.70;;;15.30;64.80;;;;;;616424;232;26547;-65
2022/04/23 10:17:53;;;;;;;3.42;3.12;;;15.50;64.80;;;;;;615847;232;26582;-65
2022/04/23 10:20:22;;;;;;;3.22;3.03;;;15.50;63.30;;;;;;614223;233;26617;-65
2022/04/23 10:22:57;;;;;;;3.50;3.20;;;15.60;62.60;;;;;;616069;233;26552;-64
2022/04/23 10:25:31;;;;;;;3.35;3.05;;;15.70;68.60;;;;;;620213;231;26606;-65
2022/04/23 10:27:59;;;;;;;4.95;3.10;;;15.80;68.00;;;;;;614461;231;26583;-66
2022/04/23 10:30:26;;;;;;;3.80;3.30;;;15.80;67.60;;;;;;617788;231;26563;-66
2022/04/23 10:32:53;;;;;;;3.78;3.47;;;15.80;65.50;;;;;;614710;233;26573;-65
2022/04/23 10:35:35;;;;;;;8.13;4.80;;;15.60;64.60;;;;;;615865;232;26924;-66
2022/04/23 10:38:04;;;;;;;3.40;3.10;;;15.60;60.80;;;;;;619915;231;26885;-65
2022/04/23 10:40:30;;;;;;;3.08;2.87;;;15.80;64.20;;;;;;612421;233;26605;-65
2022/04/23 10:43:08;;;;;;;3.15;2.95;;;15.90;60.20;;;;;;617678;231;26578;-65
2022/04/23 10:45:34;;;;;;;3.08;2.87;;;15.90;60.60;;;;;;613478;231;26798;-65
2022/04/23 10:48:24;;;;;;;4.37;3.97;;;16.10;61.60;;;;;;614771;234;26579;-65
2022/04/23 10:50:58;;;;;;;3.10;2.80;;;16.20;60.20;;;;;;614203;233;26568;-65
2022/04/23 10:53:43;;;;;;;6.68;4.70;;;16.50;62.00;;;;;;612977;234;26570;-65
2022/04/23 10:56:11;;;;;;;3.50;3.20;;;16.50;59.00;;;;;;617543;230;26635;-65
2022/04/23 10:58:40;;;;;;;3.33;3.00;;;16.70;58.50;;;;;;616627;231;26527;-65
2022/04/23 11:01:21;;;;;;;3.10;2.90;;;16.70;58.50;;;;;;621069;231;26632;-65
2022/04/23 11:04:01;;;;;;;3.17;2.92;;;16.60;59.40;;;;;;613024;231;26606;-65
2022/04/23 11:14:32;;;;;;;3.42;3.12;;;17.20;59.50;;;;;;615771;233;26541;-65
2022/04/23 11:16:59;;;;;;;2.90;2.70;;;16.90;60.50;;;;;;615022;234;26592;-66
2022/04/23 11:19:26;;;;;;;2.95;2.70;;;16.80;59.40;;;;;;615593;233;26572;-66
2022/04/23 11:21:55;;;;;;;3.35;3.05;;;16.80;58.00;;;;;;616989;231;26651;-65
2022/04/23 11:24:22;;;;;;;5.00;3.22;;;16.90;62.70;;;;;;616595;233;26630;-65
2022/04/23 11:26:51;;;;;;;3.08;2.83;;;17.00;58.60;;;;;;616805;233;26568;-65
2022/04/23 11:29:17;;;;;;;5.18;3.28;;;17.00;60.00;;;;;;616802;232;26533;-65
2022/04/23 11:31:51;;;;;;;2.55;2.35;;;17.20;57.10;;;;;;616639;232;26520;-65
2022/04/23 11:34:19;;;;;;;3.10;2.78;;;18.00;58.70;;;;;;616491;233;26536;-66
2022/04/23 11:36:46;;;;;;;2.83;2.62;;;18.00;58.50;;;;;;616615;233;26575;-65
2022/04/23 11:39:13;;;;;;;2.55;2.37;;;18.50;57.40;;;;;;616441;233;26604;-65
2022/04/23 11:41:47;;;;;;;3.25;3.05;;;18.90;58.00;;;;;;616333;232;26799;-65
2022/04/23 11:44:16;;;;;;;2.90;2.70;;;19.00;59.00;;;;;;616322;232;26571;-66
2022/04/23 11:46:44;;;;;;;3.58;3.28;;;18.90;59.10;;;;;;616058;233;26615;-67
2022/04/23 11:49:25;;;;;;;3.15;2.95;;;18.70;57.20;;;;;;616338;233;26577;-65
2022/04/23 11:51:51;;;;;;;5.15;4.32;;;18.70;57.00;;;;;;615809;232;26605;-65
2022/04/23 11:54:18;;;;;;;4.65;4.05;;;18.50;54.20;;;;;;615956;233;26622;-65
2022/04/23 11:56:46;;;;;;;2.92;2.75;;;18.20;56.50;;;;;;614073;233;26588;-66
2022/04/23 11:59:15;;;;;;;3.08;2.87;;;18.20;56.50;;;;;;615695;233;26540;-66
2022/04/23 12:01:42;;;;;;;3.17;2.97;;;18.20;55.10;;;;;;615653;234;26553;-66
2022/04/23 12:04:10;;;;;;;4.65;2.70;;;18.30;55.90;;;;;;615568;234;26584;-65
2022/04/23 12:06:43;;;;;;;2.67;2.55;;;18.20;55.80;;;;;;615720;233;26573;-66
2022/04/23 12:09:11;;;;;;;2.83;2.62;;;18.30;53.90;;;;;;615669;233;26568;-66
2022/04/23 12:11:37;;;;;;;3.22;2.90;;;18.60;56.90;;;;;;615734;232;26922;-65
2022/04/23 12:14:04;;;;;;;2.75;2.55;;;18.90;55.80;;;;;;615664;233;26579;-66
2022/04/23 12:16:33;;;;;;;2.87;2.50;;;19.00;53.20;;;;;;615649;234;26821;-66
2022/04/23 12:19:01;;;;;;;4.20;2.80;;;18.90;54.50;;;;;;615649;234;26569;-65
2022/04/23 12:21:28;;;;;;;3.30;3.00;;;18.90;54.30;;;;;;615660;234;26577;-65
2022/04/23 12:23:55;;;;;;;3.53;3.20;;;18.90;53.70;;;;;;615543;234;26790;-65
2022/04/23 12:26:24;;;;;;;3.37;2.70;;;18.70;55.30;;;;;;615674;234;26784;-66
2022/04/23 12:42:10;;;;;;;2.87;2.65;;;20.60;54.40;;;;;;616686;233;27012;-64
2022/04/23 12:44:41;;;;;;;3.08;2.78;;;21.60;48.20;;;;;;616580;232;26536;-64
2022/04/23 12:47:06;;;;;;;2.53;2.33;;;21.90;50.20;;;;;;616395;228;26568;-65
2022/04/23 12:49:47;;;;;;;2.67;2.58;;;22.00;51.30;;;;;;616186;233;26544;-65
2022/04/23 12:52:16;;;;;;;2.83;2.62;;;21.90;51.00;;;;;;615798;233;26594;-65
2022/04/23 12:55:04;;;;;;;2.90;2.58;;;22.00;48.60;;;;;;615821;233;27012;-65
2022/04/23 12:57:32;;;;;;;2.78;2.58;;;21.50;51.90;;;;;;612274;233;26881;-65
2022/04/23 13:00:00;;;;;;;2.75;2.55;;;21.50;52.10;;;;;;615806;232;26605;-65
2022/04/23 13:02:35;;;;;;;2.80;2.70;;;20.80;53.60;;;;;;615966;232;26583;-65
2022/04/23 13:05:01;;;;;;;2.60;2.50;;;20.80;53.00;;;;;;615930;227;26854;-64
2022/04/23 13:10:01;;;;;;;2.85;2.60;;;20.60;48.20;;;;;;615180;231;26644;-70
2022/04/23 13:12:28;;;;;;;2.90;2.70;;;20.50;48.20;;;;;;616597;231;26609;-71
2022/04/23 13:14:56;;;;;;;3.03;2.83;;;20.10;52.00;;;;;;613539;231;26576;-70
2022/04/23 13:17:24;;;;;;;2.70;2.60;;;20.40;54.10;;;;;;613624;231;26560;-66
2022/04/23 13:19:52;;;;;;;3.05;2.72;;;20.90;53.70;;;;;;612401;234;26655;-66
2022/04/23 13:22:20;;;;;;;2.85;2.65;;;21.30;50.70;;;;;;615009;233;26536;-66
2022/04/23 13:24:48;;;;;;;4.55;2.50;;;21.30;50.70;;;;;;613438;233;26570;-66
2022/04/23 13:27:15;;;;;;;3.20;2.70;;;22.20;51.80;;;;;;613797;234;26591;-66
2022/04/23 13:29:42;;;;;;;3.03;2.83;;;23.20;52.20;;;;;;614744;231;26850;-67
2022/04/23 13:32:09;;;;;;;2.90;2.70;;;24.20;47.90;;;;;;615345;234;26572;-67
2022/04/23 13:34:36;;;;;;;3.33;2.97;;;24.70;47.20;;;;;;614747;233;26846;-67
2022/04/23 13:37:03;;;;;;;2.72;2.55;;;25.00;46.60;;;;;;616454;231;26635;-67